Aviation Digital Data Service (ADDS)

Output produced by METARs form (0643 UTC 28 September 2022)
found at http://aviationweather.gov/metar/data/
 
METAR text: KLOT 280635Z AUTO 30004KT 10SM SCT060 07/05 A3031 RMK AO2
Conditions at: KLOT (ROMEOVILLE/CHI , IL, US) observed 0635 UTC 28 September 2022
Temperature: 7.0°C (45°F)
Dewpoint: 5.0°C (41°F) [RH = 87%]
Pressure (altimeter): 30.31 inches Hg (1026.5 mb)
Winds: from the WNW (300 degrees) at 5 MPH (4 knots; 2.1 m/s)
Visibility: 10 or more miles (16+ km)
Ceiling: at least 12,000 feet AGL
Clouds: scattered clouds at 6000 feet AGL
Weather: automated observation with no human augmentation;
there may or may not be significant weather present at this time

METAR text: KLOT 280615Z AUTO 31005KT 10SM BKN060 07/05 A3031 RMK AO2
Conditions at: KLOT (ROMEOVILLE/CHI , IL, US) observed 0615 UTC 28 September 2022
Temperature: 7.0°C (45°F)
Dewpoint: 5.0°C (41°F) [RH = 87%]
Pressure (altimeter): 30.31 inches Hg (1026.5 mb)
Winds: from the NW (310 degrees) at 6 MPH (5 knots; 2.6 m/s)
Visibility: 10 or more miles (16+ km)
Ceiling: 6000 feet AGL
Clouds: broken clouds at 6000 feet AGL
Weather: automated observation with no human augmentation;
there may or may not be significant weather present at this time

METAR text: KLOT 280555Z AUTO 30005KT 10SM CLR 07/05 A3031 RMK AO2
Conditions at: KLOT (ROMEOVILLE/CHI , IL, US) observed 0555 UTC 28 September 2022
Temperature: 7.0°C (45°F)
Dewpoint: 5.0°C (41°F) [RH = 87%]
Pressure (altimeter): 30.31 inches Hg (1026.5 mb)
Winds: from the WNW (300 degrees) at 6 MPH (5 knots; 2.6 m/s)
Visibility: 10 or more miles (16+ km)
Ceiling: at least 12,000 feet AGL
Clouds: sky clear below 12,000 feet AGL
Weather: automated observation with no human augmentation;
there may or may not be significant weather present at this time

METAR text: KLOT 280535Z AUTO 31005KT 10SM CLR 08/05 A3031 RMK AO2
Conditions at: KLOT (ROMEOVILLE/CHI , IL, US) observed 0535 UTC 28 September 2022
Temperature: 8.0°C (46°F)
Dewpoint: 5.0°C (41°F) [RH = 81%]
Pressure (altimeter): 30.31 inches Hg (1026.5 mb)
Winds: from the NW (310 degrees) at 6 MPH (5 knots; 2.6 m/s)
Visibility: 10 or more miles (16+ km)
Ceiling: at least 12,000 feet AGL
Clouds: sky clear below 12,000 feet AGL
Weather: automated observation with no human augmentation;
there may or may not be significant weather present at this time

METAR text: KLOT 280510Z AUTO 30004KT 10SM CLR 08/05 A3031 RMK AO2
Conditions at: KLOT (ROMEOVILLE/CHI , IL, US) observed 0510 UTC 28 September 2022
Temperature: 8.0°C (46°F)
Dewpoint: 5.0°C (41°F) [RH = 81%]
Pressure (altimeter): 30.31 inches Hg (1026.5 mb)
Winds: from the WNW (300 degrees) at 5 MPH (4 knots; 2.1 m/s)
Visibility: 10 or more miles (16+ km)
Ceiling: at least 12,000 feet AGL
Clouds: sky clear below 12,000 feet AGL
Weather: automated observation with no human augmentation;
there may or may not be significant weather present at this time

METAR text: KLOT 280455Z AUTO 31004KT 10SM CLR 08/05 A3031 RMK AO2
Conditions at: KLOT (ROMEOVILLE/CHI , IL, US) observed 0455 UTC 28 September 2022
Temperature: 8.0°C (46°F)
Dewpoint: 5.0°C (41°F) [RH = 81%]
Pressure (altimeter): 30.31 inches Hg (1026.5 mb)
Winds: from the NW (310 degrees) at 5 MPH (4 knots; 2.1 m/s)
Visibility: 10 or more miles (16+ km)
Ceiling: at least 12,000 feet AGL
Clouds: sky clear below 12,000 feet AGL
Weather: automated observation with no human augmentation;
there may or may not be significant weather present at this time